sensor_id;sensor_type;location;lat;lon;timestamp;P1;durP1;ratioP1;P2;durP2;ratioP2
45382;SDS011;42455;51.660;5.824;2023-04-07T00:01:37;14.0;;;12.0;;
45382;SDS011;42455;51.660;5.824;2023-04-07T00:06:44;13.0;;;11.0;;
45382;SDS011;42455;51.660;5.824;2023-04-07T00:11:49;14.0;;;12.0;;
45382;SDS011;42455;51.660;5.824;2023-04-07T00:16:55;14.5;;;12.0;;
45382;SDS011;42455;51.660;5.824;2023-04-07T00:22:01;14.0;;;12.0;;
45382;SDS011;42455;51.660;5.824;2023-04-07T00:27:07;13.0;;;11.0;;
45382;SDS011;42455;51.660;5.824;2023-04-07T00:32:13;13.0;;;11.0;;
45382;SDS011;42455;51.660;5.824;2023-04-07T00:37:19;12.0;;;11.0;;
45382;SDS011;42455;51.660;5.824;2023-04-07T00:42:25;14.0;;;11.0;;
45382;SDS011;42455;51.660;5.824;2023-04-07T00:47:31;14.0;;;11.0;;
45382;SDS011;42455;51.660;5.824;2023-04-07T00:52:37;13.0;;;11.0;;
45382;SDS011;42455;51.660;5.824;2023-04-07T00:57:44;11.5;;;10.0;;
45382;SDS011;42455;51.660;5.824;2023-04-07T01:02:51;12.0;;;11.0;;
45382;SDS011;42455;51.660;5.824;2023-04-07T01:08:03;14.0;;;11.0;;
45382;SDS011;42455;51.660;5.824;2023-04-07T01:13:21;13.0;;;12.0;;
45382;SDS011;42455;51.660;5.824;2023-04-07T01:18:11;14.0;;;12.0;;
45382;SDS011;42455;51.660;5.824;2023-04-07T01:23:31;14.0;;;12.0;;
45382;SDS011;42455;51.660;5.824;2023-04-07T01:29:10;12.0;;;10.0;;
45382;SDS011;42455;51.660;5.824;2023-04-07T01:33:26;11.0;;;9.0;;
45382;SDS011;42455;51.660;5.824;2023-04-07T01:38:32;11.0;;;8.0;;
45382;SDS011;42455;51.660;5.824;2023-04-07T01:43:39;9.0;;;8.0;;
45382;SDS011;42455;51.660;5.824;2023-04-07T01:48:45;8.0;;;7.0;;
45382;SDS011;42455;51.660;5.824;2023-04-07T01:53:51;9.0;;;7.0;;
45382;SDS011;42455;51.660;5.824;2023-04-07T01:58:57;11.0;;;8.0;;
45382;SDS011;42455;51.660;5.824;2023-04-07T02:04:11;8.0;;;7.0;;
45382;SDS011;42455;51.660;5.824;2023-04-07T02:09:10;8.0;;;7.0;;
45382;SDS011;42455;51.660;5.824;2023-04-07T02:14:15;8.0;;;6.0;;
45382;SDS011;42455;51.660;5.824;2023-04-07T02:19:21;9.0;;;7.0;;
45382;SDS011;42455;51.660;5.824;2023-04-07T02:24:27;9.0;;;6.0;;
45382;SDS011;42455;51.660;5.824;2023-04-07T02:29:33;9.0;;;6.0;;
45382;SDS011;42455;51.660;5.824;2023-04-07T02:34:39;7.0;;;6.0;;
45382;SDS011;42455;51.660;5.824;2023-04-07T02:39:45;8.0;;;6.0;;
45382;SDS011;42455;51.660;5.824;2023-04-07T02:44:51;7.5;;;6.0;;
45382;SDS011;42455;51.660;5.824;2023-04-07T02:49:57;8.0;;;6.0;;
45382;SDS011;42455;51.660;5.824;2023-04-07T02:55:04;7.0;;;6.0;;
45382;SDS011;42455;51.660;5.824;2023-04-07T03:00:10;8.0;;;7.0;;
45382;SDS011;42455;51.660;5.824;2023-04-07T03:05:16;9.0;;;7.0;;
45382;SDS011;42455;51.660;5.824;2023-04-07T03:10:22;10.0;;;7.0;;
45382;SDS011;42455;51.660;5.824;2023-04-07T03:15:28;7.5;;;6.0;;
45382;SDS011;42455;51.660;5.824;2023-04-07T03:20:35;9.0;;;7.0;;
45382;SDS011;42455;51.660;5.824;2023-04-07T03:25:41;9.0;;;7.0;;
45382;SDS011;42455;51.660;5.824;2023-04-07T03:30:47;8.0;;;7.0;;
45382;SDS011;42455;51.660;5.824;2023-04-07T03:35:53;10.0;;;7.0;;
45382;SDS011;42455;51.660;5.824;2023-04-07T03:41:00;9.0;;;7.0;;
45382;SDS011;42455;51.660;5.824;2023-04-07T03:46:06;8.0;;;7.0;;
45382;SDS011;42455;51.660;5.824;2023-04-07T03:51:12;9.0;;;8.0;;
45382;SDS011;42455;51.660;5.824;2023-04-07T03:56:18;9.0;;;7.0;;
45382;SDS011;42455;51.660;5.824;2023-04-07T04:01:24;10.0;;;8.0;;
45382;SDS011;42455;51.660;5.824;2023-04-07T04:06:30;10.0;;;7.0;;
45382;SDS011;42455;51.660;5.824;2023-04-07T04:11:37;9.0;;;7.0;;
45382;SDS011;42455;51.660;5.824;2023-04-07T04:16:43;11.0;;;8.0;;
45382;SDS011;42455;51.660;5.824;2023-04-07T04:21:48;10.0;;;8.0;;
45382;SDS011;42455;51.660;5.824;2023-04-07T04:26:54;12.0;;;8.0;;
45382;SDS011;42455;51.660;5.824;2023-04-07T04:32:01;9.0;;;7.0;;
45382;SDS011;42455;51.660;5.824;2023-04-07T04:37:07;9.0;;;7.0;;
45382;SDS011;42455;51.660;5.824;2023-04-07T04:42:13;10.0;;;7.0;;
45382;SDS011;42455;51.660;5.824;2023-04-07T04:47:19;11.0;;;7.0;;
45382;SDS011;42455;51.660;5.824;2023-04-07T04:52:25;9.0;;;6.0;;
45382;SDS011;42455;51.660;5.824;2023-04-07T04:57:32;8.0;;;6.0;;
45382;SDS011;42455;51.660;5.824;2023-04-07T05:02:38;9.0;;;6.0;;
45382;SDS011;42455;51.660;5.824;2023-04-07T05:07:44;10.0;;;6.0;;
45382;SDS011;42455;51.660;5.824;2023-04-07T05:12:50;8.0;;;6.0;;
45382;SDS011;42455;51.660;5.824;2023-04-07T05:17:56;9.0;;;6.0;;
45382;SDS011;42455;51.660;5.824;2023-04-07T05:23:03;8.0;;;7.0;;
45382;SDS011;42455;51.660;5.824;2023-04-07T05:28:09;11.0;;;7.0;;
45382;SDS011;42455;51.660;5.824;2023-04-07T05:33:15;11.0;;;7.0;;
45382;SDS011;42455;51.660;5.824;2023-04-07T05:38:21;11.0;;;8.0;;
45382;SDS011;42455;51.660;5.824;2023-04-07T05:43:27;10.0;;;8.0;;
45382;SDS011;42455;51.660;5.824;2023-04-07T05:48:34;12.0;;;9.0;;
45382;SDS011;42455;51.660;5.824;2023-04-07T05:53:40;12.0;;;9.0;;
45382;SDS011;42455;51.660;5.824;2023-04-07T05:58:46;14.0;;;9.0;;
45382;SDS011;42455;51.660;5.824;2023-04-07T06:03:52;13.0;;;10.0;;
45382;SDS011;42455;51.660;5.824;2023-04-07T06:14:04;15.0;;;10.0;;
45382;SDS011;42455;51.660;5.824;2023-04-07T06:19:09;16.0;;;10.0;;
45382;SDS011;42455;51.660;5.824;2023-04-07T06:24:15;16.0;;;10.0;;
45382;SDS011;42455;51.660;5.824;2023-04-07T06:29:20;16.5;;;10.5;;
45382;SDS011;42455;51.660;5.824;2023-04-07T06:34:27;16.0;;;10.0;;
45382;SDS011;42455;51.660;5.824;2023-04-07T06:39:33;14.0;;;10.0;;
45382;SDS011;42455;51.660;5.824;2023-04-07T06:44:39;16.5;;;11.0;;
45382;SDS011;42455;51.660;5.824;2023-04-07T06:49:45;16.0;;;10.0;;
45382;SDS011;42455;51.660;5.824;2023-04-07T06:54:51;17.0;;;10.0;;
45382;SDS011;42455;51.660;5.824;2023-04-07T06:59:58;19.0;;;12.0;;
45382;SDS011;42455;51.660;5.824;2023-04-07T07:05:04;19.5;;;12.0;;
45382;SDS011;42455;51.660;5.824;2023-04-07T07:10:10;17.0;;;12.0;;
45382;SDS011;42455;51.660;5.824;2023-04-07T07:15:16;15.0;;;12.0;;
45382;SDS011;42455;51.660;5.824;2023-04-07T07:20:22;15.0;;;11.0;;
45382;SDS011;42455;51.660;5.824;2023-04-07T07:25:29;15.0;;;11.0;;
45382;SDS011;42455;51.660;5.824;2023-04-07T07:30:37;13.0;;;10.0;;
45382;SDS011;42455;51.660;5.824;2023-04-07T07:35:41;14.5;;;10.0;;
45382;SDS011;42455;51.660;5.824;2023-04-07T07:40:47;15.0;;;11.0;;
45382;SDS011;42455;51.660;5.824;2023-04-07T07:45:54;14.5;;;10.0;;
45382;SDS011;42455;51.660;5.824;2023-04-07T07:51:00;16.0;;;12.0;;
45382;SDS011;42455;51.660;5.824;2023-04-07T07:56:06;15.0;;;12.0;;
45382;SDS011;42455;51.660;5.824;2023-04-07T08:01:12;15.0;;;13.0;;
45382;SDS011;42455;51.660;5.824;2023-04-07T08:06:18;15.0;;;13.0;;
45382;SDS011;42455;51.660;5.824;2023-04-07T08:11:25;16.0;;;13.0;;
45382;SDS011;42455;51.660;5.824;2023-04-07T08:16:30;15.5;;;13.0;;
45382;SDS011;42455;51.660;5.824;2023-04-07T08:21:36;16.0;;;13.5;;
45382;SDS011;42455;51.660;5.824;2023-04-07T08:26:41;12.0;;;10.0;;
45382;SDS011;42455;51.660;5.824;2023-04-07T08:31:47;11.0;;;7.0;;
45382;SDS011;42455;51.660;5.824;2023-04-07T08:36:54;9.0;;;7.0;;
45382;SDS011;42455;51.660;5.824;2023-04-07T08:42:00;8.0;;;6.0;;
45382;SDS011;42455;51.660;5.824;2023-04-07T08:47:07;8.0;;;7.0;;
45382;SDS011;42455;51.660;5.824;2023-04-07T08:52:14;10.0;;;7.0;;
45382;SDS011;42455;51.660;5.824;2023-04-07T08:57:18;11.0;;;9.0;;
45382;SDS011;42455;51.660;5.824;2023-04-07T09:02:25;12.0;;;9.0;;
45382;SDS011;42455;51.660;5.824;2023-04-07T09:07:32;12.0;;;10.0;;
45382;SDS011;42455;51.660;5.824;2023-04-07T09:12:37;12.0;;;10.0;;
45382;SDS011;42455;51.660;5.824;2023-04-07T09:17:43;11.0;;;10.0;;
45382;SDS011;42455;51.660;5.824;2023-04-07T09:22:50;11.0;;;9.0;;
45382;SDS011;42455;51.660;5.824;2023-04-07T09:27:56;11.0;;;9.0;;
45382;SDS011;42455;51.660;5.824;2023-04-07T09:33:02;10.0;;;9.0;;
45382;SDS011;42455;51.660;5.824;2023-04-07T09:38:09;12.0;;;9.0;;
45382;SDS011;42455;51.660;5.824;2023-04-07T09:43:15;12.0;;;8.0;;
45382;SDS011;42455;51.660;5.824;2023-04-07T09:48:21;11.0;;;8.0;;
45382;SDS011;42455;51.660;5.824;2023-04-07T09:53:30;11.0;;;8.0;;
45382;SDS011;42455;51.660;5.824;2023-04-07T09:58:33;13.0;;;9.0;;
45382;SDS011;42455;51.660;5.824;2023-04-07T10:03:39;11.0;;;9.0;;
45382;SDS011;42455;51.660;5.824;2023-04-07T10:08:45;10.0;;;9.0;;
45382;SDS011;42455;51.660;5.824;2023-04-07T10:13:51;11.0;;;9.0;;
45382;SDS011;42455;51.660;5.824;2023-04-07T10:18:57;11.0;;;9.0;;
45382;SDS011;42455;51.660;5.824;2023-04-07T10:24:13;13.0;;;10.0;;
45382;SDS011;42455;51.660;5.824;2023-04-07T10:29:09;11.0;;;9.0;;
45382;SDS011;42455;51.660;5.824;2023-04-07T10:34:15;13.0;;;9.0;;
45382;SDS011;42455;51.660;5.824;2023-04-07T10:39:21;11.0;;;10.0;;
45382;SDS011;42455;51.660;5.824;2023-04-07T10:44:47;12.0;;;10.0;;
45382;SDS011;42455;51.660;5.824;2023-04-07T10:54:39;8.5;;;7.0;;
45382;SDS011;42455;51.660;5.824;2023-04-07T11:00:14;9.0;;;6.0;;
45382;SDS011;42455;51.660;5.824;2023-04-07T11:04:52;9.0;;;6.0;;
45382;SDS011;42455;51.660;5.824;2023-04-07T11:10:07;9.0;;;5.0;;
45382;SDS011;42455;51.660;5.824;2023-04-07T11:15:20;9.0;;;5.0;;
45382;SDS011;42455;51.660;5.824;2023-04-07T11:20:10;8.0;;;4.0;;
45382;SDS011;42455;51.660;5.824;2023-04-07T11:25:20;8.0;;;4.0;;
45382;SDS011;42455;51.660;5.824;2023-04-07T11:30:23;9.0;;;4.0;;
45382;SDS011;42455;51.660;5.824;2023-04-07T11:35:29;7.0;;;4.0;;
45382;SDS011;42455;51.660;5.824;2023-04-07T11:40:36;8.5;;;5.0;;
45382;SDS011;42455;51.660;5.824;2023-04-07T11:45:42;8.0;;;4.5;;
45382;SDS011;42455;51.660;5.824;2023-04-07T11:50:48;8.0;;;4.0;;
45382;SDS011;42455;51.660;5.824;2023-04-07T11:55:57;8.0;;;5.0;;
45382;SDS011;42455;51.660;5.824;2023-04-07T12:01:01;7.0;;;4.0;;
45382;SDS011;42455;51.660;5.824;2023-04-07T12:06:06;7.5;;;5.0;;
45382;SDS011;42455;51.660;5.824;2023-04-07T12:11:12;9.0;;;5.0;;
45382;SDS011;42455;51.660;5.824;2023-04-07T12:16:18;9.0;;;5.0;;
45382;SDS011;42455;51.660;5.824;2023-04-07T12:21:24;9.0;;;5.0;;
45382;SDS011;42455;51.660;5.824;2023-04-07T12:26:29;10.0;;;5.0;;
45382;SDS011;42455;51.660;5.824;2023-04-07T12:31:35;10.0;;;5.0;;
45382;SDS011;42455;51.660;5.824;2023-04-07T12:36:42;8.0;;;5.0;;
45382;SDS011;42455;51.660;5.824;2023-04-07T12:41:48;8.0;;;5.0;;
45382;SDS011;42455;51.660;5.824;2023-04-07T12:46:54;8.0;;;5.0;;
45382;SDS011;42455;51.660;5.824;2023-04-07T12:52:00;7.0;;;4.0;;
45382;SDS011;42455;51.660;5.824;2023-04-07T12:57:06;10.0;;;5.0;;
45382;SDS011;42455;51.660;5.824;2023-04-07T13:02:13;6.0;;;5.0;;
45382;SDS011;42455;51.660;5.824;2023-04-07T13:07:19;9.0;;;6.0;;
45382;SDS011;42455;51.660;5.824;2023-04-07T13:12:25;9.0;;;5.0;;
45382;SDS011;42455;51.660;5.824;2023-04-07T13:17:31;10.0;;;5.0;;
45382;SDS011;42455;51.660;5.824;2023-04-07T13:22:38;10.0;;;5.0;;
45382;SDS011;42455;51.660;5.824;2023-04-07T13:27:44;8.0;;;5.0;;
45382;SDS011;42455;51.660;5.824;2023-04-07T13:32:50;10.0;;;5.0;;
45382;SDS011;42455;51.660;5.824;2023-04-07T13:37:56;9.5;;;5.0;;
45382;SDS011;42455;51.660;5.824;2023-04-07T13:43:02;10.0;;;6.0;;
45382;SDS011;42455;51.660;5.824;2023-04-07T13:48:09;9.0;;;6.0;;
45382;SDS011;42455;51.660;5.824;2023-04-07T13:53:15;8.0;;;5.5;;
45382;SDS011;42455;51.660;5.824;2023-04-07T13:58:21;9.0;;;6.0;;
45382;SDS011;42455;51.660;5.824;2023-04-07T14:03:27;9.0;;;6.0;;
45382;SDS011;42455;51.660;5.824;2023-04-07T14:08:33;10.5;;;6.0;;
45382;SDS011;42455;51.660;5.824;2023-04-07T14:13:39;9.0;;;5.0;;
45382;SDS011;42455;51.660;5.824;2023-04-07T14:18:45;10.0;;;6.0;;
45382;SDS011;42455;51.660;5.824;2023-04-07T14:23:50;13.0;;;6.0;;
45382;SDS011;42455;51.660;5.824;2023-04-07T14:28:56;9.0;;;6.0;;
45382;SDS011;42455;51.660;5.824;2023-04-07T14:34:02;10.0;;;5.0;;
45382;SDS011;42455;51.660;5.824;2023-04-07T14:39:09;11.0;;;5.0;;
45382;SDS011;42455;51.660;5.824;2023-04-07T14:44:15;11.0;;;6.0;;
45382;SDS011;42455;51.660;5.824;2023-04-07T14:49:21;11.0;;;6.0;;
45382;SDS011;42455;51.660;5.824;2023-04-07T14:54:27;9.5;;;5.0;;
45382;SDS011;42455;51.660;5.824;2023-04-07T14:59:33;8.0;;;5.0;;
45382;SDS011;42455;51.660;5.824;2023-04-07T15:04:40;11.0;;;6.0;;
45382;SDS011;42455;51.660;5.824;2023-04-07T15:09:46;11.0;;;5.0;;
45382;SDS011;42455;51.660;5.824;2023-04-07T15:14:52;8.0;;;4.0;;
45382;SDS011;42455;51.660;5.824;2023-04-07T15:19:58;8.5;;;4.0;;
45382;SDS011;42455;51.660;5.824;2023-04-07T15:25:05;7.0;;;4.0;;
45382;SDS011;42455;51.660;5.824;2023-04-07T15:30:11;10.0;;;4.0;;
45382;SDS011;42455;51.660;5.824;2023-04-07T15:35:17;9.5;;;5.0;;
45382;SDS011;42455;51.660;5.824;2023-04-07T15:40:23;10.5;;;5.0;;
45382;SDS011;42455;51.660;5.824;2023-04-07T15:45:29;9.5;;;5.0;;
45382;SDS011;42455;51.660;5.824;2023-04-07T15:50:36;11.0;;;5.0;;
45382;SDS011;42455;51.660;5.824;2023-04-07T15:55:42;8.5;;;5.0;;
45382;SDS011;42455;51.660;5.824;2023-04-07T16:00:48;9.0;;;5.0;;
45382;SDS011;42455;51.660;5.824;2023-04-07T16:05:54;9.0;;;6.0;;
45382;SDS011;42455;51.660;5.824;2023-04-07T16:10:59;11.0;;;6.0;;
45382;SDS011;42455;51.660;5.824;2023-04-07T16:16:06;11.0;;;6.0;;
45382;SDS011;42455;51.660;5.824;2023-04-07T16:21:12;10.0;;;6.0;;
45382;SDS011;42455;51.660;5.824;2023-04-07T16:26:18;14.0;;;6.0;;
45382;SDS011;42455;51.660;5.824;2023-04-07T16:31:24;13.0;;;6.0;;
45382;SDS011;42455;51.660;5.824;2023-04-07T16:36:30;10.0;;;6.0;;
45382;SDS011;42455;51.660;5.824;2023-04-07T16:41:37;11.0;;;6.0;;
45382;SDS011;42455;51.660;5.824;2023-04-07T16:46:43;12.0;;;6.0;;
45382;SDS011;42455;51.660;5.824;2023-04-07T16:51:49;12.0;;;6.0;;
45382;SDS011;42455;51.660;5.824;2023-04-07T16:56:55;10.0;;;6.0;;
45382;SDS011;42455;51.660;5.824;2023-04-07T17:02:02;10.0;;;6.0;;
45382;SDS011;42455;51.660;5.824;2023-04-07T17:07:08;10.0;;;6.0;;
45382;SDS011;42455;51.660;5.824;2023-04-07T17:12:14;12.0;;;6.0;;
45382;SDS011;42455;51.660;5.824;2023-04-07T17:17:20;12.0;;;6.0;;
45382;SDS011;42455;51.660;5.824;2023-04-07T17:22:26;9.0;;;6.0;;
45382;SDS011;42455;51.660;5.824;2023-04-07T17:27:33;11.0;;;6.0;;
45382;SDS011;42455;51.660;5.824;2023-04-07T17:32:39;13.0;;;6.0;;
45382;SDS011;42455;51.660;5.824;2023-04-07T17:37:45;11.0;;;6.0;;
45382;SDS011;42455;51.660;5.824;2023-04-07T17:42:51;12.0;;;6.0;;
45382;SDS011;42455;51.660;5.824;2023-04-07T17:47:57;12.0;;;7.0;;
45382;SDS011;42455;51.660;5.824;2023-04-07T17:53:04;11.5;;;6.0;;
45382;SDS011;42455;51.660;5.824;2023-04-07T17:58:09;11.5;;;6.0;;
45382;SDS011;42455;51.660;5.824;2023-04-07T18:03:15;9.0;;;6.0;;
45382;SDS011;42455;51.660;5.824;2023-04-07T18:08:20;12.0;;;6.0;;
45382;SDS011;42455;51.660;5.824;2023-04-07T18:13:27;10.0;;;6.0;;
45382;SDS011;42455;51.660;5.824;2023-04-07T18:18:32;10.0;;;6.0;;
45382;SDS011;42455;51.660;5.824;2023-04-07T18:23:37;8.5;;;6.0;;
45382;SDS011;42455;51.660;5.824;2023-04-07T18:28:43;9.0;;;6.0;;
45382;SDS011;42455;51.660;5.824;2023-04-07T18:33:49;10.0;;;5.0;;
45382;SDS011;42455;51.660;5.824;2023-04-07T18:38:56;9.0;;;5.0;;
45382;SDS011;42455;51.660;5.824;2023-04-07T18:44:02;10.0;;;6.0;;
45382;SDS011;42455;51.660;5.824;2023-04-07T18:49:08;10.0;;;6.0;;
45382;SDS011;42455;51.660;5.824;2023-04-07T18:54:14;10.0;;;6.0;;
45382;SDS011;42455;51.660;5.824;2023-04-07T18:59:20;11.0;;;7.0;;
45382;SDS011;42455;51.660;5.824;2023-04-07T19:04:27;11.0;;;7.0;;
45382;SDS011;42455;51.660;5.824;2023-04-07T19:09:33;11.0;;;7.0;;
45382;SDS011;42455;51.660;5.824;2023-04-07T19:14:39;13.0;;;8.0;;
45382;SDS011;42455;51.660;5.824;2023-04-07T19:19:45;13.5;;;8.0;;
45382;SDS011;42455;51.660;5.824;2023-04-07T19:24:51;11.0;;;8.0;;
45382;SDS011;42455;51.660;5.824;2023-04-07T19:29:58;12.0;;;9.0;;
45382;SDS011;42455;51.660;5.824;2023-04-07T19:35:04;11.0;;;9.0;;
45382;SDS011;42455;51.660;5.824;2023-04-07T19:40:10;13.0;;;10.0;;
45382;SDS011;42455;51.660;5.824;2023-04-07T19:45:16;13.0;;;10.0;;
45382;SDS011;42455;51.660;5.824;2023-04-07T19:50:23;12.5;;;11.0;;
45382;SDS011;42455;51.660;5.824;2023-04-07T19:55:29;13.0;;;11.0;;
45382;SDS011;42455;51.660;5.824;2023-04-07T20:00:35;13.5;;;11.0;;
45382;SDS011;42455;51.660;5.824;2023-04-07T20:05:40;15.0;;;12.0;;
45382;SDS011;42455;51.660;5.824;2023-04-07T20:10:48;13.0;;;12.0;;
45382;SDS011;42455;51.660;5.824;2023-04-07T20:15:52;17.0;;;12.0;;
45382;SDS011;42455;51.660;5.824;2023-04-07T20:20:58;17.0;;;12.0;;
45382;SDS011;42455;51.660;5.824;2023-04-07T20:26:04;15.0;;;12.0;;
45382;SDS011;42455;51.660;5.824;2023-04-07T20:31:10;18.0;;;13.0;;
45382;SDS011;42455;51.660;5.824;2023-04-07T20:36:16;17.0;;;13.0;;
45382;SDS011;42455;51.660;5.824;2023-04-07T20:41:23;20.0;;;13.0;;
45382;SDS011;42455;51.660;5.824;2023-04-07T20:46:31;18.5;;;14.0;;
45382;SDS011;42455;51.660;5.824;2023-04-07T20:51:35;17.0;;;13.0;;
45382;SDS011;42455;51.660;5.824;2023-04-07T20:56:41;17.0;;;13.0;;
45382;SDS011;42455;51.660;5.824;2023-04-07T21:01:47;20.0;;;14.0;;
45382;SDS011;42455;51.660;5.824;2023-04-07T21:06:54;19.0;;;13.0;;
45382;SDS011;42455;51.660;5.824;2023-04-07T21:12:00;18.0;;;13.5;;
45382;SDS011;42455;51.660;5.824;2023-04-07T21:17:06;18.0;;;13.0;;
45382;SDS011;42455;51.660;5.824;2023-04-07T21:22:12;18.0;;;13.0;;
45382;SDS011;42455;51.660;5.824;2023-04-07T21:27:19;19.0;;;14.0;;
45382;SDS011;42455;51.660;5.824;2023-04-07T21:32:25;20.0;;;14.0;;
45382;SDS011;42455;51.660;5.824;2023-04-07T21:37:31;20.0;;;14.0;;
45382;SDS011;42455;51.660;5.824;2023-04-07T21:42:37;18.0;;;14.0;;
45382;SDS011;42455;51.660;5.824;2023-04-07T21:47:44;21.0;;;14.0;;
45382;SDS011;42455;51.660;5.824;2023-04-07T21:52:49;17.0;;;14.0;;
45382;SDS011;42455;51.660;5.824;2023-04-07T21:57:56;21.0;;;15.0;;
45382;SDS011;42455;51.660;5.824;2023-04-07T22:03:01;20.0;;;15.0;;
45382;SDS011;42455;51.660;5.824;2023-04-07T22:08:07;19.0;;;16.0;;
45382;SDS011;42455;51.660;5.824;2023-04-07T22:13:12;21.0;;;16.0;;
45382;SDS011;42455;51.660;5.824;2023-04-07T22:18:19;23.0;;;16.0;;
45382;SDS011;42455;51.660;5.824;2023-04-07T22:23:25;20.0;;;17.0;;
45382;SDS011;42455;51.660;5.824;2023-04-07T22:28:31;22.0;;;16.0;;
45382;SDS011;42455;51.660;5.824;2023-04-07T22:33:37;22.0;;;17.0;;
45382;SDS011;42455;51.660;5.824;2023-04-07T22:38:43;24.0;;;18.0;;
45382;SDS011;42455;51.660;5.824;2023-04-07T22:43:50;22.0;;;17.0;;
45382;SDS011;42455;51.660;5.824;2023-04-07T22:48:56;21.0;;;17.0;;
45382;SDS011;42455;51.660;5.824;2023-04-07T22:54:02;21.0;;;17.0;;
45382;SDS011;42455;51.660;5.824;2023-04-07T22:59:08;22.0;;;18.0;;
45382;SDS011;42455;51.660;5.824;2023-04-07T23:04:15;25.0;;;19.0;;
45382;SDS011;42455;51.660;5.824;2023-04-07T23:09:21;26.0;;;20.0;;
45382;SDS011;42455;51.660;5.824;2023-04-07T23:14:27;25.0;;;20.0;;
45382;SDS011;42455;51.660;5.824;2023-04-07T23:19:33;25.0;;;21.0;;
45382;SDS011;42455;51.660;5.824;2023-04-07T23:24:39;30.0;;;21.0;;
45382;SDS011;42455;51.660;5.824;2023-04-07T23:29:46;29.0;;;22.0;;
45382;SDS011;42455;51.660;5.824;2023-04-07T23:34:52;28.0;;;22.0;;
45382;SDS011;42455;51.660;5.824;2023-04-07T23:39:58;31.0;;;23.0;;
45382;SDS011;42455;51.660;5.824;2023-04-07T23:45:04;31.0;;;24.0;;
45382;SDS011;42455;51.660;5.824;2023-04-07T23:50:10;30.0;;;24.0;;
45382;SDS011;42455;51.660;5.824;2023-04-07T23:55:17;31.0;;;25.0;;
